createdAt,value
2022-10-11T00:00:01.626Z,11.03
2022-10-11T00:05:24.479Z,10.98
2022-10-11T00:10:26.891Z,10.93
2022-10-11T00:15:29.337Z,10.88
2022-10-11T00:20:31.876Z,10.82
2022-10-11T00:25:34.264Z,10.77
2022-10-11T00:30:36.740Z,10.75
2022-10-11T00:35:41.589Z,10.75
2022-10-11T00:40:45.407Z,10.73
2022-10-11T00:46:24.854Z,10.68
2022-10-11T00:51:43.160Z,10.62
2022-10-11T00:56:50.846Z,10.56
2022-10-11T01:01:53.512Z,10.52
2022-10-11T01:06:57.835Z,10.47
2022-10-11T01:12:03.377Z,10.42
2022-10-11T01:17:24.659Z,10.35
2022-10-11T01:22:38.141Z,10.28
2022-10-11T01:27:46.850Z,10.24
2022-10-11T01:33:16.246Z,10.23
2022-10-11T01:38:40.454Z,10.25
2022-10-11T01:43:44.733Z,10.26
2022-10-11T01:48:53.158Z,10.23
2022-10-11T01:54:56.622Z,10.16
2022-10-11T02:00:18.067Z,10.07
2022-10-11T02:05:58.473Z,9.98
2022-10-11T02:11:20.175Z,9.87
2022-10-11T02:16:28.409Z,9.75
2022-10-11T02:21:34.531Z,9.63
2022-10-11T02:26:43.587Z,9.53
2022-10-11T02:31:47.971Z,9.46
2022-10-11T02:37:07.200Z,9.39
2022-10-11T02:42:17.507Z,9.33
2022-10-11T02:47:20.032Z,9.28
2022-10-11T02:52:22.444Z,9.22
2022-10-11T02:57:24.990Z,9.15
2022-10-11T03:02:27.661Z,9.07
2022-10-11T03:07:30.490Z,8.98
2022-10-11T03:12:33.586Z,8.93
2022-10-11T03:17:37.319Z,8.94
2022-10-11T03:22:40.574Z,9.00
2022-10-11T03:27:43.012Z,9.09
2022-10-11T03:32:45.902Z,9.18
2022-10-11T03:37:48.433Z,9.27
2022-10-11T03:42:50.901Z,9.37
2022-10-11T03:47:53.439Z,9.46
2022-10-11T03:52:55.862Z,9.54
2022-10-11T03:57:58.336Z,9.61
2022-10-11T04:03:03.598Z,9.69
2022-10-11T04:08:11.208Z,9.75
2022-10-11T04:13:15.047Z,9.78
2022-10-11T04:18:17.543Z,9.83
2022-10-11T04:23:20.044Z,9.85
2022-10-11T04:28:22.942Z,9.88
2022-10-11T04:33:25.423Z,9.89
2022-10-11T04:38:27.859Z,9.89
2022-10-11T04:43:30.284Z,9.92
2022-10-11T04:48:33.091Z,9.93
2022-10-11T04:53:35.692Z,9.91
2022-10-11T04:58:42.006Z,9.92
2022-10-11T05:03:44.551Z,9.96
2022-10-11T05:08:47.173Z,9.98
2022-10-11T05:13:50.053Z,9.99
2022-10-11T05:18:52.496Z,10.03
2022-10-11T05:23:56.293Z,10.06
2022-10-11T05:29:01.139Z,10.10
2022-10-11T05:34:03.926Z,10.15
2022-10-11T05:39:06.400Z,10.19
2022-10-11T05:44:08.952Z,10.22
2022-10-11T05:49:11.388Z,10.28
2022-10-11T05:54:15.114Z,10.30
2022-10-11T05:59:17.553Z,10.37
2022-10-11T06:04:20.282Z,10.45
2022-10-11T06:09:23.241Z,10.60
2022-10-11T06:14:26.689Z,10.87
2022-10-11T06:19:29.135Z,11.08
2022-10-11T06:24:31.886Z,11.09
2022-10-11T06:29:35.589Z,11.05
2022-10-11T06:34:38.068Z,11.04
2022-10-11T06:39:40.563Z,11.21
2022-10-11T06:44:43.187Z,11.52
2022-10-11T06:49:45.992Z,11.68
2022-10-11T06:54:48.662Z,11.65
2022-10-11T06:59:51.211Z,11.74
2022-10-11T07:04:54.093Z,12.05
2022-10-11T07:09:57.896Z,12.38
2022-10-11T07:15:00.561Z,12.78
2022-10-11T07:20:03.362Z,13.25
2022-10-11T07:25:06.875Z,13.70
2022-10-11T07:30:09.996Z,14.09
2022-10-11T07:35:12.513Z,14.33
2022-10-11T07:40:14.997Z,14.42
2022-10-11T07:45:17.467Z,14.32
2022-10-11T07:50:19.916Z,14.09
2022-10-11T07:55:22.376Z,14.14
2022-10-11T08:00:24.865Z,14.41
2022-10-11T08:05:27.311Z,14.66
2022-10-11T08:10:29.946Z,15.05
2022-10-11T08:15:32.462Z,15.22
2022-10-11T08:20:35.083Z,15.30
2022-10-11T08:25:45.524Z,15.23
2022-10-11T08:30:53.604Z,15.20
2022-10-11T08:35:57.267Z,15.27
2022-10-11T08:41:01.156Z,15.23
2022-10-11T08:46:05.958Z,15.33
2022-10-11T08:51:18.571Z,15.53
2022-10-11T08:56:23.959Z,15.63
2022-10-11T09:01:28.538Z,15.75
2022-10-11T09:06:47.723Z,15.88
2022-10-11T09:12:16.121Z,15.89
2022-10-11T09:17:56.737Z,16.10
2022-10-11T09:23:18.112Z,16.26
2022-10-11T09:28:48.678Z,16.37
2022-10-11T09:33:52.381Z,16.43
2022-10-11T09:39:07.002Z,16.49
2022-10-11T09:44:19.188Z,16.54
2022-10-11T09:49:25.185Z,16.59
2022-10-11T09:55:00.507Z,16.61
2022-10-11T10:00:24.211Z,16.62
2022-10-11T10:05:29.938Z,16.92
2022-10-11T10:10:38.712Z,16.81
2022-10-11T10:15:46.120Z,16.30
2022-10-11T10:20:53.640Z,16.07
2022-10-11T10:26:19.570Z,15.95
2022-10-11T10:31:25.547Z,15.82
2022-10-11T10:36:35.428Z,15.78
2022-10-11T10:41:37.899Z,15.78
2022-10-11T10:52:47.379Z,15.75
2022-10-11T10:57:59.499Z,15.62
2022-10-11T11:03:05.616Z,15.43
2022-10-11T11:08:46.534Z,15.24
2022-10-11T11:14:07.811Z,15.32
2022-10-11T11:19:47.987Z,15.69
2022-10-11T11:25:19.578Z,16.12
2022-10-11T11:30:57.091Z,16.45
2022-10-11T11:36:05.045Z,16.54
2022-10-11T11:41:28.624Z,16.62
2022-10-11T11:46:40.862Z,16.72
2022-10-11T11:51:46.070Z,16.73
2022-10-11T11:57:33.659Z,16.78
2022-10-11T12:02:57.263Z,16.70
2022-10-11T12:08:02.819Z,16.55
2022-10-11T12:13:32.343Z,16.67
2022-10-11T12:18:46.880Z,16.58
2022-10-11T12:23:52.566Z,16.11
2022-10-11T12:29:17.078Z,15.96
2022-10-11T12:34:36.114Z,15.90
2022-10-11T12:39:49.068Z,15.63
2022-10-11T12:45:13.520Z,15.52
2022-10-11T12:50:22.486Z,15.66
2022-10-11T12:55:37.553Z,15.88
2022-10-11T13:00:39.928Z,16.01
2022-10-11T13:05:50.980Z,15.79
2022-10-11T13:11:03.234Z,15.60
2022-10-11T13:16:14.643Z,15.50
2022-10-11T13:21:36.547Z,15.38
2022-10-11T13:26:39.994Z,15.21
2022-10-11T13:31:46.248Z,15.05
2022-10-11T13:36:54.122Z,15.18
2022-10-11T13:41:58.212Z,15.56
2022-10-11T13:47:00.761Z,15.68
2022-10-11T13:52:24.015Z,15.44
2022-10-11T13:57:41.731Z,15.16
2022-10-11T14:02:59.609Z,15.69
2022-10-11T14:08:26.808Z,16.05
2022-10-11T14:13:53.818Z,15.97
2022-10-11T14:18:59.178Z,15.69
2022-10-11T14:24:05.520Z,15.59
2022-10-11T14:29:21.782Z,15.65
2022-10-11T14:34:26.811Z,16.09
2022-10-11T14:39:31.711Z,16.23
2022-10-11T14:44:34.555Z,15.90
2022-10-11T14:49:37.607Z,15.62
2022-10-11T14:54:40.906Z,15.32
2022-10-11T14:59:43.576Z,15.06
2022-10-11T15:04:46.027Z,14.75
2022-10-11T15:09:48.460Z,14.43
2022-10-11T15:14:50.910Z,14.16
2022-10-11T15:19:53.465Z,13.94
2022-10-11T15:24:56.108Z,13.75
2022-10-11T15:29:58.521Z,13.59
2022-10-11T15:35:00.957Z,13.45
2022-10-11T15:40:14.139Z,13.32
2022-10-11T15:45:18.402Z,13.20
2022-10-11T15:50:33.771Z,13.10
2022-10-11T15:55:40.369Z,12.98
2022-10-11T16:00:45.184Z,12.87
2022-10-11T16:05:48.531Z,12.78
2022-10-11T16:10:52.221Z,12.72
2022-10-11T16:15:55.151Z,12.66
2022-10-11T16:20:58.033Z,12.60
2022-10-11T16:26:04.275Z,12.50
2022-10-11T16:31:09.271Z,12.39
2022-10-11T16:36:32.338Z,12.27
2022-10-11T16:41:34.950Z,12.10
2022-10-11T16:46:37.442Z,11.89
2022-10-11T16:51:43.012Z,11.68
2022-10-11T16:56:45.541Z,11.44
2022-10-11T17:01:48.328Z,11.22
2022-10-11T17:06:52.664Z,11.03
2022-10-11T17:11:55.376Z,10.81
2022-10-11T17:16:57.822Z,10.63
2022-10-11T17:22:00.674Z,10.47
2022-10-11T17:27:04.513Z,10.34
2022-10-11T17:32:07.314Z,10.24
2022-10-11T17:37:10.255Z,10.16
2022-10-11T17:42:12.943Z,10.05
2022-10-11T17:47:15.830Z,9.91
2022-10-11T17:52:18.705Z,9.80
2022-10-11T17:57:21.342Z,9.67
2022-10-11T18:02:24.152Z,9.54
2022-10-11T18:07:28.130Z,9.41
2022-10-11T18:12:33.709Z,9.30
2022-10-11T18:17:39.463Z,9.20
2022-10-11T18:22:42.403Z,9.16
2022-10-11T18:27:46.649Z,9.11
2022-10-11T18:32:50.609Z,9.03
2022-10-11T18:38:00.047Z,8.93
2022-10-11T18:43:05.800Z,8.82
2022-10-11T18:48:10.935Z,8.69
2022-10-11T18:53:14.771Z,8.55
2022-10-11T18:58:18.354Z,8.49
2022-10-11T19:03:23.393Z,8.52
2022-10-11T19:08:27.739Z,8.58
2022-10-11T19:13:30.163Z,8.62
2022-10-11T19:18:33.294Z,8.62
2022-10-11T19:23:39.458Z,8.60
2022-10-11T19:28:43.167Z,8.58
2022-10-11T19:33:48.621Z,8.55
2022-10-11T19:38:52.564Z,8.53
2022-10-11T19:43:57.853Z,8.51
2022-10-11T19:49:02.868Z,8.46
2022-10-11T19:54:12.997Z,8.41
2022-10-11T19:59:15.974Z,8.33
2022-10-11T20:04:47.017Z,8.22
2022-10-11T20:09:42.951Z,8.12
2022-10-11T20:14:46.336Z,8.03
2022-10-11T20:19:49.573Z,7.96
2022-10-11T20:24:52.898Z,7.88
2022-10-11T20:29:55.879Z,7.81
2022-10-11T20:34:58.585Z,7.71
2022-10-11T20:40:01.024Z,7.58
2022-10-11T20:45:04.212Z,7.44
2022-10-11T20:50:07.533Z,7.31
2022-10-11T20:55:10.162Z,7.23
2022-10-11T21:00:14.377Z,7.19
2022-10-11T21:05:16.910Z,7.20
2022-10-11T21:10:19.332Z,7.23
2022-10-11T21:15:21.848Z,7.27
2022-10-11T21:20:25.154Z,7.26
2022-10-11T21:25:27.661Z,7.24
2022-10-11T21:30:30.567Z,7.24
2022-10-11T21:35:33.024Z,7.27
2022-10-11T21:40:39.185Z,7.35
2022-10-11T21:45:41.610Z,7.45
2022-10-11T21:50:44.047Z,7.52
2022-10-11T21:55:47.167Z,7.55
2022-10-11T22:00:49.701Z,7.52
2022-10-11T22:05:52.102Z,7.48
2022-10-11T22:10:57.388Z,7.45
2022-10-11T22:16:04.999Z,7.45
2022-10-11T22:21:14.713Z,7.48
2022-10-11T22:26:20.451Z,7.56
2022-10-11T22:31:23.535Z,7.66
2022-10-11T22:36:27.325Z,7.73
2022-10-11T22:41:29.788Z,7.78
2022-10-11T22:46:32.770Z,7.82
2022-10-11T22:51:35.455Z,7.87
2022-10-11T22:56:37.878Z,7.93
2022-10-11T23:01:40.702Z,7.98
2022-10-11T23:06:44.065Z,8.02
2022-10-11T23:11:46.585Z,8.05
2022-10-11T23:16:52.587Z,8.06
2022-10-11T23:21:55.041Z,8.05
2022-10-11T23:26:57.532Z,8.02
2022-10-11T23:32:00.020Z,7.98
2022-10-11T23:37:03.339Z,7.93
2022-10-11T23:42:05.863Z,7.85
2022-10-11T23:47:08.615Z,7.81
2022-10-11T23:52:11.206Z,7.82
2022-10-11T23:57:13.817Z,7.84
